Etusivu
METAR-TAF:

METAR-TAF

Lentoasemat :

Skavstan lentoasema

Tukholma-Skavsta, Ruotsi

Leveyspiiri: 58-47N, Pituuspiiri: 016-55E, korkeus merenpinnasta: 43 m

Tämänhetkinen sää

Tämä raportti tehtiin 37 minuuttia sitten, kello 04.20 UTC
Tuuli 3 kn idästä/kaakosta
Lämpötila 4°C
Kosteus 100%
Ilmanpaine 1026 hPa
Näkyvyys: 1500 m
sumuhattaroita

METAR: ESKN 230420Z 11003KT 1500 R08/P2000N R26/1100U BCFG NSC 04/04 Q1026

Aika: 06:57 (04:57 UTC)

Sääennuste

Tämä raportti tehtiin 1 tunti ja 58 minuuttia sitten, kello 02.59 UTC
Ennuste voimassa 23. päivästä klo 02 UTC - 23. päivään klo 24 UTC
Tuuli 2 kn eri suunnista
Näkyvyys: 0500 m
sumuhattaroita
Tulossa
23. päivästä klo 03 UTC - 23. päivään klo 05 UTC
Näkyvyys 10 km tai enemmän

TAF: ESKN 230259Z 2302/2324 VRB02KT 0500 BCFG NSC BECMG 2303/2305 9999 NSW

Säähavainnot ja -ennusteet yli 4000 lentoasemalta (METAR- ja TAF-raportit).

Käytössä olevat sääasemat on merkitty karttaan keltaisilla ja punaisilla pisteillä.

Aseta hiiri pisteen päälle nähdäksesi sääaseman nimen.

Klikkaa sitten nähdäksesi säähavainnot ja -ennusteet.

Kartan vaihtaminen: klikkaa mustalla rastilla varustettuja vihreitä pisteitä, niin voit zoomata sisään; viivalla varustettua vihreää pistettä, niin voit zoomata ulos tai vihreitä nuolia, niin pääset viereisille kartoille.


METAR-TAF: